createdAt,value
2023-02-15T00:02:10.940Z,13.53
2023-02-15T00:06:12.292Z,13.88
2023-02-15T00:10:13.699Z,13.71
2023-02-15T00:14:20.909Z,14.04
2023-02-15T00:18:22.175Z,13.72
2023-02-15T00:22:23.501Z,13.60
2023-02-15T00:26:25.415Z,13.69
2023-02-15T00:30:26.848Z,13.76
2023-02-15T00:34:28.673Z,13.25
2023-02-15T00:38:31.392Z,13.29
2023-02-15T00:42:32.676Z,12.97
2023-02-15T00:46:34.525Z,13.37
2023-02-15T00:50:35.792Z,13.63
2023-02-15T00:54:37.102Z,13.33
2023-02-15T00:58:38.564Z,12.71
2023-02-15T01:02:39.891Z,13.17
2023-02-15T01:06:41.196Z,13.39
2023-02-15T01:10:44.883Z,13.25
2023-02-15T01:14:46.197Z,12.77
2023-02-15T01:18:48.100Z,13.08
2023-02-15T01:22:50.692Z,13.29
2023-02-15T01:26:52.040Z,13.28
2023-02-15T01:30:53.509Z,12.77
2023-02-15T01:34:54.952Z,13.20
2023-02-15T01:38:56.402Z,13.09
2023-02-15T01:42:57.782Z,12.54
2023-02-15T01:46:59.120Z,12.57
2023-02-15T01:51:03.286Z,13.11
2023-02-15T01:55:07.305Z,11.96
2023-02-15T01:59:15.031Z,12.51
2023-02-15T02:03:16.532Z,11.99
2023-02-15T02:07:21.390Z,12.34
2023-02-15T02:11:23.283Z,12.57
2023-02-15T02:15:41.705Z,12.09
2023-02-15T02:20:11.103Z,12.70
2023-02-15T02:24:35.377Z,12.76
2023-02-15T02:29:11.124Z,12.10
2023-02-15T02:33:27.591Z,12.37
2023-02-15T02:37:38.246Z,12.07
2023-02-15T02:41:51.432Z,12.51
2023-02-15T02:46:26.497Z,11.97
2023-02-15T02:50:30.516Z,12.06
2023-02-15T02:54:34.675Z,12.56
2023-02-15T02:59:02.441Z,11.73
2023-02-15T03:03:09.454Z,11.95
2023-02-15T03:07:15.562Z,12.03
2023-02-15T03:11:17.029Z,12.09
2023-02-15T03:15:26.195Z,11.98
2023-02-15T03:19:31.863Z,12.44
2023-02-15T03:23:34.785Z,12.37
2023-02-15T03:27:40.291Z,12.34
2023-02-15T03:31:46.707Z,12.11
2023-02-15T03:35:54.872Z,11.40
2023-02-15T03:40:21.531Z,12.10
2023-02-15T03:44:28.476Z,11.17
2023-02-15T03:48:40.049Z,11.46
2023-02-15T03:52:41.522Z,11.96
2023-02-15T03:57:03.430Z,11.58
2023-02-15T04:01:30.863Z,11.89
2023-02-15T04:05:32.194Z,11.81
2023-02-15T04:09:52.136Z,12.02
2023-02-15T04:13:57.552Z,11.77
2023-02-15T04:17:59.004Z,12.22
2023-02-15T04:22:19.093Z,11.89
2023-02-15T04:26:20.436Z,11.43
2023-02-15T04:30:25.442Z,11.94
2023-02-15T04:34:27.225Z,11.60
2023-02-15T04:38:28.539Z,11.62
2023-02-15T04:42:29.845Z,11.50
2023-02-15T04:46:31.656Z,11.61
2023-02-15T04:50:33.092Z,11.36
2023-02-15T04:54:34.500Z,11.69
2023-02-15T04:58:36.509Z,11.23
2023-02-15T05:02:38.762Z,11.85
2023-02-15T05:06:40.071Z,11.55
2023-02-15T05:10:41.459Z,11.60
2023-02-15T05:14:42.815Z,11.50
2023-02-15T05:18:44.249Z,11.89
2023-02-15T05:22:45.693Z,12.22
2023-02-15T05:27:05.411Z,12.14
2023-02-15T05:31:12.981Z,12.04
2023-02-15T05:35:16.303Z,11.96
2023-02-15T05:39:17.843Z,11.63
2023-02-15T05:43:19.482Z,11.46
2023-02-15T05:47:21.112Z,11.13
2023-02-15T05:51:22.509Z,10.61
2023-02-15T05:55:23.845Z,11.56
2023-02-15T05:59:25.177Z,11.68
2023-02-15T06:03:29.233Z,11.48
2023-02-15T06:07:30.877Z,11.57
2023-02-15T06:11:32.259Z,11.63
2023-02-15T06:15:33.741Z,11.28
2023-02-15T06:19:35.054Z,10.89
2023-02-15T06:23:36.425Z,10.92
2023-02-15T06:27:38.682Z,10.57
2023-02-15T06:31:40.120Z,11.30
2023-02-15T06:35:42.037Z,10.57
2023-02-15T06:39:43.928Z,10.87
2023-02-15T06:43:45.220Z,11.39
2023-02-15T06:47:46.606Z,10.97
2023-02-15T06:51:48.023Z,11.71
2023-02-15T06:55:49.399Z,11.79
2023-02-15T06:59:50.898Z,11.50
2023-02-15T07:03:52.265Z,11.93
2023-02-15T07:07:53.572Z,10.76
2023-02-15T07:12:13.406Z,11.47
2023-02-15T07:16:15.183Z,12.00
2023-02-15T07:20:22.552Z,11.64
2023-02-15T07:24:24.138Z,12.26
2023-02-15T07:28:25.638Z,11.85
2023-02-15T07:32:31.678Z,12.19
2023-02-15T07:36:33.168Z,11.96
2023-02-15T07:40:34.536Z,11.51
2023-02-15T07:44:35.910Z,12.06
2023-02-15T07:48:37.564Z,12.16
2023-02-15T07:52:38.826Z,11.57
2023-02-15T07:56:40.512Z,12.22
2023-02-15T08:01:02.570Z,11.53
2023-02-15T08:05:04.194Z,12.13
2023-02-15T08:09:09.514Z,12.82
2023-02-15T08:13:10.842Z,12.28
2023-02-15T08:17:12.254Z,12.52
2023-02-15T08:21:13.654Z,11.65
2023-02-15T08:25:15.000Z,12.90
2023-02-15T08:29:18.956Z,13.70
2023-02-15T08:33:20.276Z,14.29
2023-02-15T08:37:21.683Z,13.84
2023-02-15T08:41:25.531Z,13.10
2023-02-15T08:45:26.933Z,14.18
2023-02-15T08:49:28.384Z,13.92
2023-02-15T08:53:29.648Z,14.82
2023-02-15T08:57:31.010Z,14.52
2023-02-15T09:01:34.751Z,16.07
2023-02-15T09:05:36.091Z,15.51
2023-02-15T09:09:37.591Z,16.10
2023-02-15T09:13:40.327Z,16.43
2023-02-15T09:17:44.145Z,16.97
2023-02-15T09:21:47.537Z,17.40
2023-02-15T09:25:49.026Z,17.99
2023-02-15T09:29:50.373Z,18.84
2023-02-15T09:33:51.854Z,19.34
2023-02-15T09:37:53.169Z,18.38
2023-02-15T09:42:00.505Z,19.61
2023-02-15T09:46:21.822Z,20.79
2023-02-15T09:50:42.395Z,18.36
2023-02-15T09:55:07.995Z,18.42
2023-02-15T09:59:35.490Z,18.14
2023-02-15T10:03:52.990Z,19.28
2023-02-15T10:08:34.999Z,19.23
2023-02-15T10:12:37.025Z,17.65
2023-02-15T10:16:50.541Z,20.38
2023-02-15T10:20:57.723Z,21.87
2023-02-15T10:25:14.449Z,23.53
2023-02-15T10:29:21.906Z,22.63
2023-02-15T10:33:32.037Z,22.78
2023-02-15T10:37:47.566Z,24.26
2023-02-15T10:42:10.124Z,23.69
2023-02-15T10:46:33.612Z,21.21
2023-02-15T10:50:49.254Z,21.11
2023-02-15T10:55:07.517Z,22.61
2023-02-15T10:59:29.112Z,21.28
2023-02-15T11:03:41.377Z,20.70
2023-02-15T11:07:46.860Z,20.99
2023-02-15T11:11:51.363Z,22.74
2023-02-15T11:15:57.972Z,22.53
2023-02-15T11:20:08.753Z,22.58
2023-02-15T11:24:15.863Z,24.71
2023-02-15T11:28:32.869Z,24.50
2023-02-15T11:32:38.166Z,23.77
2023-02-15T11:36:42.591Z,23.12
2023-02-15T11:41:15.952Z,23.00
2023-02-15T11:45:35.497Z,23.39
2023-02-15T11:49:38.164Z,24.60
2023-02-15T11:53:40.547Z,25.67
2023-02-15T11:57:48.129Z,24.07
2023-02-15T12:01:49.520Z,23.95
2023-02-15T12:05:57.367Z,25.07
2023-02-15T12:10:07.881Z,22.51
2023-02-15T12:14:12.653Z,20.49
2023-02-15T12:18:48.045Z,20.87
2023-02-15T12:23:03.244Z,21.26
2023-02-15T12:27:17.354Z,20.27
2023-02-15T12:31:23.591Z,20.14
2023-02-15T12:35:31.787Z,20.58
2023-02-15T12:39:33.821Z,20.47
2023-02-15T12:43:38.586Z,20.73
2023-02-15T12:47:40.336Z,19.88
2023-02-15T12:51:47.230Z,21.17
2023-02-15T12:55:57.385Z,20.32
2023-02-15T13:00:26.776Z,20.03
2023-02-15T13:04:30.052Z,20.42
2023-02-15T13:08:35.575Z,20.93
2023-02-15T13:12:36.966Z,20.59
2023-02-15T13:16:40.656Z,21.40
2023-02-15T13:20:43.407Z,20.02
2023-02-15T13:24:51.257Z,20.58
2023-02-15T13:29:09.657Z,20.12
2023-02-15T13:33:27.306Z,21.11
2023-02-15T13:37:58.427Z,21.70
2023-02-15T13:42:21.981Z,22.33
2023-02-15T13:46:53.366Z,22.20
2023-02-15T13:51:02.493Z,21.03
2023-02-15T13:55:37.436Z,21.71
2023-02-15T14:00:07.826Z,21.87
2023-02-15T14:04:29.896Z,21.60
2023-02-15T14:08:31.660Z,21.24
2023-02-15T14:12:50.359Z,21.94
2023-02-15T14:17:07.012Z,21.94
2023-02-15T14:21:20.209Z,22.07
2023-02-15T14:25:31.237Z,22.35
2023-02-15T14:29:41.931Z,22.21
2023-02-15T14:33:57.843Z,21.91
2023-02-15T14:38:03.558Z,22.35
2023-02-15T14:42:38.569Z,21.77
2023-02-15T14:46:49.211Z,22.02
2023-02-15T14:50:52.116Z,21.76
2023-02-15T14:54:55.329Z,21.50
2023-02-15T14:58:59.332Z,21.80
2023-02-15T15:03:01.069Z,21.73
2023-02-15T15:07:08.487Z,21.45
2023-02-15T15:11:41.082Z,21.64
2023-02-15T15:15:48.011Z,21.94
2023-02-15T15:19:52.245Z,21.96
2023-02-15T15:23:54.042Z,21.19
2023-02-15T15:27:55.987Z,21.32
2023-02-15T15:32:00.961Z,21.74
2023-02-15T15:36:32.538Z,21.94
2023-02-15T15:41:01.431Z,21.27
2023-02-15T15:45:21.466Z,21.01
2023-02-15T15:49:29.016Z,21.13
2023-02-15T15:53:35.486Z,21.50
2023-02-15T15:57:42.295Z,21.58
2023-02-15T16:01:45.235Z,20.94
2023-02-15T16:05:46.632Z,21.25
2023-02-15T16:10:02.381Z,21.03
2023-02-15T16:14:03.788Z,20.32
2023-02-15T16:18:05.657Z,20.98
2023-02-15T16:22:33.698Z,20.97
2023-02-15T16:26:56.909Z,20.81
2023-02-15T16:31:15.821Z,20.72
2023-02-15T16:35:19.793Z,20.55
2023-02-15T16:39:21.400Z,20.55
2023-02-15T16:43:27.318Z,20.54
2023-02-15T16:47:32.378Z,20.14
2023-02-15T16:51:35.943Z,20.28
2023-02-15T16:55:42.769Z,20.17
2023-02-15T16:59:49.086Z,20.13
2023-02-15T17:03:52.982Z,20.07
2023-02-15T17:08:03.399Z,20.15
2023-02-15T17:12:05.574Z,20.18
2023-02-15T17:16:26.907Z,19.68
2023-02-15T17:20:28.888Z,19.32
2023-02-15T17:24:40.164Z,19.82
2023-02-15T17:28:47.673Z,19.57
2023-02-15T17:32:58.177Z,19.72
2023-02-15T17:37:03.306Z,19.61
2023-02-15T17:41:05.210Z,19.91
2023-02-15T17:45:06.926Z,19.49
2023-02-15T17:49:19.332Z,19.67
2023-02-15T17:53:20.638Z,19.73
2023-02-15T17:57:22.001Z,19.80
2023-02-15T18:01:42.138Z,19.65
2023-02-15T18:06:02.313Z,19.71
2023-02-15T18:10:35.938Z,19.28
2023-02-15T18:14:37.231Z,19.04
2023-02-15T18:18:38.549Z,19.19
2023-02-15T18:22:39.843Z,19.31
2023-02-15T18:26:41.222Z,19.10
2023-02-15T18:30:43.195Z,19.24
2023-02-15T18:34:46.545Z,18.41
2023-02-15T18:38:48.026Z,19.14
2023-02-15T18:42:49.450Z,19.05
2023-02-15T18:46:50.821Z,18.62
2023-02-15T18:50:52.190Z,18.76
2023-02-15T18:54:57.812Z,18.85
2023-02-15T18:58:59.241Z,18.90
2023-02-15T19:03:02.342Z,18.80
2023-02-15T19:07:03.676Z,18.59
2023-02-15T19:11:05.425Z,18.79
2023-02-15T19:15:07.324Z,18.84
2023-02-15T19:19:08.637Z,18.56
2023-02-15T19:23:20.696Z,18.65
2023-02-15T19:27:31.701Z,18.67
2023-02-15T19:31:35.105Z,18.43
2023-02-15T19:35:37.047Z,18.13
2023-02-15T19:39:40.190Z,18.27
2023-02-15T19:43:41.568Z,17.88
2023-02-15T19:47:43.382Z,17.97
2023-02-15T19:51:44.954Z,18.23
2023-02-15T19:55:46.599Z,18.14
2023-02-15T19:59:47.934Z,17.99
2023-02-15T20:03:51.173Z,17.86
2023-02-15T20:07:53.605Z,18.12
2023-02-15T20:11:55.381Z,17.97
2023-02-15T20:15:56.824Z,17.98
2023-02-15T20:19:58.335Z,17.88
2023-02-15T20:24:01.060Z,17.56
2023-02-15T20:28:02.484Z,17.93
2023-02-15T20:32:04.276Z,16.96
2023-02-15T20:36:05.854Z,17.03
2023-02-15T20:40:35.339Z,17.32
2023-02-15T20:44:36.743Z,17.65
2023-02-15T20:48:38.104Z,17.41
2023-02-15T20:52:39.537Z,17.59
2023-02-15T20:56:41.083Z,17.44
2023-02-15T21:00:42.526Z,17.22
2023-02-15T21:04:43.870Z,17.04
2023-02-15T21:08:45.231Z,17.17
2023-02-15T21:12:47.446Z,17.52
2023-02-15T21:16:50.544Z,17.34
2023-02-15T21:20:56.549Z,17.56
2023-02-15T21:24:57.883Z,17.30
2023-02-15T21:28:59.279Z,17.07
2023-02-15T21:33:00.666Z,17.41
2023-02-15T21:37:02.089Z,17.23
2023-02-15T21:41:23.535Z,17.41
2023-02-15T21:45:43.473Z,17.27
2023-02-15T21:49:44.802Z,17.17
2023-02-15T21:53:46.996Z,17.25
2023-02-15T21:57:48.432Z,17.34
2023-02-15T22:01:51.283Z,17.26
2023-02-15T22:05:52.702Z,17.12
2023-02-15T22:09:54.327Z,17.01
2023-02-15T22:13:55.696Z,17.08
2023-02-15T22:17:57.388Z,16.79
2023-02-15T22:21:58.748Z,16.95
2023-02-15T22:26:11.500Z,16.77
2023-02-15T22:30:33.153Z,16.92
2023-02-15T22:34:34.438Z,16.81
2023-02-15T22:38:35.742Z,16.57
2023-02-15T22:42:37.113Z,16.79
2023-02-15T22:46:40.444Z,16.51
2023-02-15T22:50:41.848Z,16.69
2023-02-15T22:54:43.367Z,16.53
2023-02-15T22:58:48.228Z,15.96
2023-02-15T23:02:49.846Z,16.60
2023-02-15T23:06:53.189Z,16.48
2023-02-15T23:10:56.623Z,16.17
2023-02-15T23:14:58.332Z,16.07
2023-02-15T23:18:59.857Z,16.01
2023-02-15T23:23:01.154Z,16.31
2023-02-15T23:27:21.029Z,16.03
2023-02-15T23:31:28.578Z,16.37
2023-02-15T23:35:29.976Z,16.08
2023-02-15T23:39:50.182Z,16.09
2023-02-15T23:44:00.321Z,16.31
2023-02-15T23:48:19.956Z,16.27
2023-02-15T23:52:21.490Z,15.91
2023-02-15T23:56:22.811Z,16.18
